Dayton, Tennessee
Current Conditions -  °F | °C
As of 8:35 AM on Sunday 23 Nov 2014 (Local Time) from KMMI Reporting Station
Broken Clouds Broken Clouds  
Wind Chill: 46°   Ceiling: 7500
Heat Index: 48°   Visibility: 10mi
Dew Point: 43°   Wind: 5mph
Humidity: 82%   Direction: 50°NE
Pressure: 30"   Gusts: NA
Location:  35.49°N, 85.01°W
Report Text: KMMI 231335Z AUTO 05004KT 10SM FEW029 SCT038 BKN075 09/06 A3000 RMK
Loading
Personal Weather Stations






























Interactive Weather Map New forecast layout! Learn more

10-Day Weather Forecast

Advertisements
Track Severe Weather on mobile